<?xml version='1.0' encoding='UTF-8'?><gpx version="1.1" creator="JPX - https://github.com/jenetics/jpx" xmlns="http://www.topografix.com/GPX/1/1"><trk><trkseg><trkpt lat="42.4823401" lon="12.3803064"><ele>121.0</ele><time>2026-04-25T08:19:08.909Z</time></trkpt><trkpt lat="42.4822781" lon="12.3801934"><ele>121.0</ele><time>2026-04-25T08:19:10.907Z</time></trkpt><trkpt lat="42.4822381" lon="12.3801249"><ele>121.0</ele><time>2026-04-25T08:19:11.908Z</time></trkpt><trkpt lat="42.4821931" lon="12.3800582"><ele>121.0</ele><time>2026-04-25T08:19:12.909Z</time></trkpt><trkpt lat="42.4821084" lon="12.379959"><ele>121.0</ele><time>2026-04-25T08:19:14.908Z</time></trkpt><trkpt lat="42.4820041" lon="12.379875"><ele>121.71428571428571</ele><time>2026-04-25T08:19:16.908Z</time></trkpt><trkpt lat="42.481948" lon="12.3798321"><ele>122.42857142857142</ele><time>2026-04-25T08:19:17.908Z</time></trkpt><trkpt lat="42.481875" lon="12.3797572"><ele>123.14285714285714</ele><time>2026-04-25T08:19:19.908Z</time></trkpt><trkpt lat="42.4818345" lon="12.3796873"><ele>123.85714285714286</ele><time>2026-04-25T08:19:21.908Z</time></trkpt><trkpt lat="42.481804" lon="12.3795776"><ele>124.57142857142857</ele><time>2026-04-25T08:19:24.908Z</time></trkpt><trkpt lat="42.4817943" lon="12.3794905"><ele>125.28571428571428</ele><time>2026-04-25T08:19:26.908Z</time></trkpt><trkpt lat="42.4817986" lon="12.379404"><ele>126.0</ele><time>2026-04-25T08:19:28.909Z</time></trkpt><trkpt lat="42.4818047" lon="12.3792846"><ele>126.0</ele><time>2026-04-25T08:19:31.908Z</time></trkpt><trkpt lat="42.4818052" lon="12.37918"><ele>126.0</ele><time>2026-04-25T08:19:34.908Z</time></trkpt><trkpt lat="42.481794" lon="12.3790788"><ele>126.0</ele><time>2026-04-25T08:19:38.908Z</time></trkpt><trkpt lat="42.4817621" lon="12.3790031"><ele>126.0</ele><time>2026-04-25T08:19:42.908Z</time></trkpt><trkpt lat="42.481744" lon="12.3788966"><ele>126.0</ele><time>2026-04-25T08:19:45.908Z</time></trkpt><trkpt lat="42.4817349" lon="12.3787999"><ele>126.0</ele><time>2026-04-25T08:19:47.909Z</time></trkpt><trkpt lat="42.4816966" lon="12.3787209"><ele>126.0</ele><time>2026-04-25T08:19:50.909Z</time></trkpt><trkpt lat="42.4816154" lon="12.3786549"><ele>124.5</ele><time>2026-04-25T08:20:07.909Z</time></trkpt><trkpt lat="42.4815229" lon="12.3785722"><ele>123.0</ele><time>2026-04-25T08:20:09.909Z</time></trkpt><trkpt lat="42.4814694" lon="12.3785185"><ele>121.5</ele><time>2026-04-25T08:20:10.907Z</time></trkpt><trkpt lat="42.4814187" lon="12.3784518"><ele>120.0</ele><time>2026-04-25T08:20:11.909Z</time></trkpt><trkpt lat="42.4813714" lon="12.3783865"><ele>118.5</ele><time>2026-04-25T08:20:12.909Z</time></trkpt><trkpt lat="42.481317" lon="12.3783167"><ele>117.0</ele><time>2026-04-25T08:20:13.907Z</time></trkpt><trkpt lat="42.4812706" lon="12.3782439"><ele>116.39999999999999</ele><time>2026-04-25T08:20:14.909Z</time></trkpt><trkpt lat="42.4812272" lon="12.3781809"><ele>115.79999999999998</ele><time>2026-04-25T08:20:15.908Z</time></trkpt><trkpt lat="42.4811481" lon="12.3780637"><ele>115.2</ele><time>2026-04-25T08:20:17.907Z</time></trkpt><trkpt lat="42.4810703" lon="12.3779702"><ele>114.6</ele><time>2026-04-25T08:20:19.909Z</time></trkpt><trkpt lat="42.4809841" lon="12.377876"><ele>114.0</ele><time>2026-04-25T08:20:21.909Z</time></trkpt><trkpt lat="42.480888" lon="12.3777754"><ele>114.0</ele><time>2026-04-25T08:20:23.908Z</time></trkpt><trkpt lat="42.4808037" lon="12.3777056"><ele>114.0</ele><time>2026-04-25T08:20:25.907Z</time></trkpt><trkpt lat="42.4807229" lon="12.3776512"><ele>114.0</ele><time>2026-04-25T08:20:27.909Z</time></trkpt><trkpt lat="42.4806475" lon="12.3775976"><ele>114.0</ele><time>2026-04-25T08:20:29.907Z</time></trkpt><trkpt lat="42.4805743" lon="12.3775525"><ele>114.0</ele><time>2026-04-25T08:20:31.908Z</time></trkpt><trkpt lat="42.4804961" lon="12.3775064"><ele>114.0</ele><time>2026-04-25T08:20:34.907Z</time></trkpt><trkpt lat="42.4804289" lon="12.3774597"><ele>113.0</ele><time>2026-04-25T08:20:36.908Z</time></trkpt><trkpt lat="42.480336" lon="12.3774031"><ele>112.0</ele><time>2026-04-25T08:20:38.908Z</time></trkpt><trkpt lat="42.4802483" lon="12.3773341"><ele>111.0</ele><time>2026-04-25T08:20:40.907Z</time></trkpt><trkpt lat="42.4801622" lon="12.3772542"><ele>110.0</ele><time>2026-04-25T08:20:42.909Z</time></trkpt><trkpt lat="42.4800858" lon="12.3771946"><ele>109.0</ele><time>2026-04-25T08:20:44.907Z</time></trkpt><trkpt lat="42.4800109" lon="12.3771346"><ele>109.00000000000001</ele><time>2026-04-25T08:20:46.908Z</time></trkpt><trkpt lat="42.4799334" lon="12.3770702"><ele>109.0</ele><time>2026-04-25T08:20:48.908Z</time></trkpt><trkpt lat="42.4798647" lon="12.3770175"><ele>109.0</ele><time>2026-04-25T08:20:50.907Z</time></trkpt><trkpt lat="42.4797998" lon="12.3769602"><ele>109.0</ele><time>2026-04-25T08:20:52.907Z</time></trkpt><trkpt lat="42.4797281" lon="12.3769254"><ele>109.00000000000001</ele><time>2026-04-25T08:20:54.906Z</time></trkpt><trkpt lat="42.4796434" lon="12.3769113"><ele>109.0</ele><time>2026-04-25T08:20:56.908Z</time></trkpt><trkpt lat="42.4795542" lon="12.3769152"><ele>108.83333333333334</ele><time>2026-04-25T08:20:58.907Z</time></trkpt><trkpt lat="42.4794716" lon="12.3769229"><ele>108.66666666666667</ele><time>2026-04-25T08:21:00.907Z</time></trkpt><trkpt lat="42.4793962" lon="12.3769294"><ele>108.5</ele><time>2026-04-25T08:21:02.906Z</time></trkpt><trkpt lat="42.4793185" lon="12.3769375"><ele>108.33333333333334</ele><time>2026-04-25T08:21:04.908Z</time></trkpt><trkpt lat="42.4792306" lon="12.3769492"><ele>108.16666666666667</ele><time>2026-04-25T08:21:06.908Z</time></trkpt><trkpt lat="42.4791442" lon="12.3769534"><ele>108.0</ele><time>2026-04-25T08:21:08.909Z</time></trkpt><trkpt lat="42.4790567" lon="12.3769586"><ele>108.0</ele><time>2026-04-25T08:21:10.908Z</time></trkpt><trkpt lat="42.4789684" lon="12.3769602"><ele>108.00000000000001</ele><time>2026-04-25T08:21:12.907Z</time></trkpt><trkpt lat="42.4788815" lon="12.3769711"><ele>108.00000000000001</ele><time>2026-04-25T08:21:14.908Z</time></trkpt><trkpt lat="42.4787899" lon="12.3769826"><ele>108.0</ele><time>2026-04-25T08:21:16.907Z</time></trkpt><trkpt lat="42.4786939" lon="12.3769901"><ele>108.0</ele><time>2026-04-25T08:21:18.907Z</time></trkpt><trkpt lat="42.4786064" lon="12.3770063"><ele>107.60000000000001</ele><time>2026-04-25T08:21:20.907Z</time></trkpt><trkpt lat="42.4785077" lon="12.377019"><ele>107.20000000000002</ele><time>2026-04-25T08:21:22.908Z</time></trkpt><trkpt lat="42.4783962" lon="12.3770301"><ele>106.8</ele><time>2026-04-25T08:21:24.907Z</time></trkpt><trkpt lat="42.4782909" lon="12.3770403"><ele>106.4</ele><time>2026-04-25T08:21:26.908Z</time></trkpt><trkpt lat="42.4781895" lon="12.3770494"><ele>106.0</ele><time>2026-04-25T08:21:28.906Z</time></trkpt><trkpt lat="42.4780911" lon="12.3770633"><ele>106.0</ele><time>2026-04-25T08:21:30.908Z</time></trkpt><trkpt lat="42.4779974" lon="12.3770707"><ele>106.0</ele><time>2026-04-25T08:21:32.908Z</time></trkpt><trkpt lat="42.4779026" lon="12.3770463"><ele>106.0</ele><time>2026-04-25T08:21:34.907Z</time></trkpt><trkpt lat="42.4778167" lon="12.376966"><ele>106.0</ele><time>2026-04-25T08:21:36.907Z</time></trkpt><trkpt lat="42.4777541" lon="12.3768376"><ele>106.0</ele><time>2026-04-25T08:21:38.907Z</time></trkpt><trkpt lat="42.4777127" lon="12.3766841"><ele>108.19999999999999</ele><time>2026-04-25T08:21:40.907Z</time></trkpt><trkpt lat="42.4776967" lon="12.3765166"><ele>110.39999999999999</ele><time>2026-04-25T08:21:42.908Z</time></trkpt><trkpt lat="42.4776877" lon="12.3763432"><ele>112.6</ele><time>2026-04-25T08:21:44.907Z</time></trkpt><trkpt lat="42.4776856" lon="12.376257"><ele>114.8</ele><time>2026-04-25T08:21:45.907Z</time></trkpt><trkpt lat="42.4776883" lon="12.3761004"><ele>117.0</ele><time>2026-04-25T08:21:47.906Z</time></trkpt><trkpt lat="42.4776851" lon="12.3759603"><ele>117.0</ele><time>2026-04-25T08:21:49.908Z</time></trkpt><trkpt lat="42.4776834" lon="12.375848"><ele>117.0</ele><time>2026-04-25T08:21:51.907Z</time></trkpt><trkpt lat="42.4776801" lon="12.3757047"><ele>117.0</ele><time>2026-04-25T08:21:53.908Z</time></trkpt><trkpt lat="42.4776779" lon="12.3756062"><ele>117.0</ele><time>2026-04-25T08:21:54.907Z</time></trkpt><trkpt lat="42.4776787" lon="12.3754994"><ele>117.0</ele><time>2026-04-25T08:21:55.908Z</time></trkpt><trkpt lat="42.4776833" lon="12.3753794"><ele>117.0</ele><time>2026-04-25T08:21:56.907Z</time></trkpt><trkpt lat="42.4776863" lon="12.3752636"><ele>117.0</ele><time>2026-04-25T08:21:57.908Z</time></trkpt><trkpt lat="42.4776879" lon="12.3751478"><ele>117.0</ele><time>2026-04-25T08:21:58.908Z</time></trkpt><trkpt lat="42.4776843" lon="12.3750237"><ele>117.0</ele><time>2026-04-25T08:21:59.907Z</time></trkpt><trkpt lat="42.4776819" lon="12.3749165"><ele>117.0</ele><time>2026-04-25T08:22:00.907Z</time></trkpt><trkpt lat="42.4776782" lon="12.3748063"><ele>117.0</ele><time>2026-04-25T08:22:01.909Z</time></trkpt><trkpt lat="42.4776622" lon="12.3747057"><ele>117.0</ele><time>2026-04-25T08:22:02.908Z</time></trkpt><trkpt lat="42.4776432" lon="12.3746144"><ele>117.83333333333333</ele><time>2026-04-25T08:22:03.906Z</time></trkpt><trkpt lat="42.4776257" lon="12.3745146"><ele>118.66666666666666</ele><time>2026-04-25T08:22:04.907Z</time></trkpt><trkpt lat="42.4776133" lon="12.3744212"><ele>119.5</ele><time>2026-04-25T08:22:05.907Z</time></trkpt><trkpt lat="42.477607" lon="12.3743273"><ele>120.33333333333333</ele><time>2026-04-25T08:22:06.907Z</time></trkpt><trkpt lat="42.477607" lon="12.3742383"><ele>121.16666666666666</ele><time>2026-04-25T08:22:07.909Z</time></trkpt><trkpt lat="42.4776221" lon="12.3740637"><ele>122.0</ele><time>2026-04-25T08:22:09.908Z</time></trkpt><trkpt lat="42.4776282" lon="12.3739064"><ele>122.0</ele><time>2026-04-25T08:22:11.908Z</time></trkpt><trkpt lat="42.4776092" lon="12.3737671"><ele>121.99999999999999</ele><time>2026-04-25T08:22:13.907Z</time></trkpt><trkpt lat="42.4775389" lon="12.3736394"><ele>121.99999999999999</ele><time>2026-04-25T08:22:15.907Z</time></trkpt><trkpt lat="42.4774879" lon="12.3735812"><ele>122.0</ele><time>2026-04-25T08:22:16.908Z</time></trkpt><trkpt lat="42.4773841" lon="12.3734978"><ele>122.0</ele><time>2026-04-25T08:22:18.907Z</time></trkpt><trkpt lat="42.4772987" lon="12.3734029"><ele>122.0</ele><time>2026-04-25T08:22:20.908Z</time></trkpt><trkpt lat="42.4772173" lon="12.3733296"><ele>121.99999999999999</ele><time>2026-04-25T08:22:22.907Z</time></trkpt><trkpt lat="42.477137" lon="12.373265"><ele>121.99999999999999</ele><time>2026-04-25T08:22:24.907Z</time></trkpt><trkpt lat="42.4770639" lon="12.3731805"><ele>122.0</ele><time>2026-04-25T08:22:26.907Z</time></trkpt><trkpt lat="42.4769738" lon="12.3730786"><ele>122.0</ele><time>2026-04-25T08:22:28.908Z</time></trkpt><trkpt lat="42.4769198" lon="12.3730257"><ele>123.49999999999999</ele><time>2026-04-25T08:22:29.907Z</time></trkpt><trkpt lat="42.4768611" lon="12.3729623"><ele>125.0</ele><time>2026-04-25T08:22:30.908Z</time></trkpt><trkpt lat="42.4768069" lon="12.3729054"><ele>126.5</ele><time>2026-04-25T08:22:31.907Z</time></trkpt><trkpt lat="42.4767184" lon="12.3728188"><ele>128.0</ele><time>2026-04-25T08:22:33.907Z</time></trkpt><trkpt lat="42.4766302" lon="12.3727169"><ele>129.5</ele><time>2026-04-25T08:22:35.909Z</time></trkpt><trkpt lat="42.4765771" lon="12.372665"><ele>131.0</ele><time>2026-04-25T08:22:36.907Z</time></trkpt><trkpt lat="42.4764759" lon="12.3725635"><ele>131.0</ele><time>2026-04-25T08:22:38.908Z</time></trkpt><trkpt lat="42.4764209" lon="12.3725002"><ele>131.0</ele><time>2026-04-25T08:22:39.907Z</time></trkpt><trkpt lat="42.4763691" lon="12.3724408"><ele>131.0</ele><time>2026-04-25T08:22:40.907Z</time></trkpt><trkpt lat="42.4763192" lon="12.3723859"><ele>131.0</ele><time>2026-04-25T08:22:41.907Z</time></trkpt><trkpt lat="42.4762714" lon="12.3723283"><ele>131.0</ele><time>2026-04-25T08:22:42.908Z</time></trkpt><trkpt lat="42.4762253" lon="12.3722688"><ele>131.0</ele><time>2026-04-25T08:22:43.908Z</time></trkpt><trkpt lat="42.4761893" lon="12.3721944"><ele>131.0</ele><time>2026-04-25T08:22:44.909Z</time></trkpt><trkpt lat="42.4761184" lon="12.3720566"><ele>132.75</ele><time>2026-04-25T08:22:46.907Z</time></trkpt><trkpt lat="42.4760384" lon="12.3719359"><ele>134.5</ele><time>2026-04-25T08:22:48.907Z</time></trkpt><trkpt lat="42.4759462" lon="12.3718406"><ele>136.25</ele><time>2026-04-25T08:22:50.907Z</time></trkpt><trkpt lat="42.4758522" lon="12.3717505"><ele>138.0</ele><time>2026-04-25T08:22:52.906Z</time></trkpt><trkpt lat="42.4757652" lon="12.3716828"><ele>138.0</ele><time>2026-04-25T08:22:54.907Z</time></trkpt><trkpt lat="42.4756556" lon="12.3715843"><ele>138.0</ele><time>2026-04-25T08:22:56.907Z</time></trkpt><trkpt lat="42.4755921" lon="12.3715264"><ele>138.0</ele><time>2026-04-25T08:22:57.906Z</time></trkpt><trkpt lat="42.4755295" lon="12.3714756"><ele>138.0</ele><time>2026-04-25T08:22:58.909Z</time></trkpt><trkpt lat="42.4754694" lon="12.3714278"><ele>138.0</ele><time>2026-04-25T08:22:59.907Z</time></trkpt><trkpt lat="42.4754071" lon="12.3713816"><ele>138.0</ele><time>2026-04-25T08:23:00.908Z</time></trkpt><trkpt lat="42.4753427" lon="12.3713376"><ele>138.33333333333334</ele><time>2026-04-25T08:23:01.907Z</time></trkpt><trkpt lat="42.4752812" lon="12.3712958"><ele>138.66666666666666</ele><time>2026-04-25T08:23:02.906Z</time></trkpt><trkpt lat="42.4752235" lon="12.3712535"><ele>139.0</ele><time>2026-04-25T08:23:03.908Z</time></trkpt><trkpt lat="42.4751657" lon="12.3712051"><ele>139.33333333333331</ele><time>2026-04-25T08:23:04.907Z</time></trkpt><trkpt lat="42.475109" lon="12.3711597"><ele>139.66666666666666</ele><time>2026-04-25T08:23:05.909Z</time></trkpt><trkpt lat="42.4750048" lon="12.3710616"><ele>140.0</ele><time>2026-04-25T08:23:07.908Z</time></trkpt><trkpt lat="42.4749112" lon="12.3709778"><ele>140.0</ele><time>2026-04-25T08:23:09.907Z</time></trkpt><trkpt lat="42.4748154" lon="12.3708986"><ele>140.0</ele><time>2026-04-25T08:23:11.906Z</time></trkpt><trkpt lat="42.4747185" lon="12.3708534"><ele>140.0</ele><time>2026-04-25T08:23:13.907Z</time></trkpt><trkpt lat="42.4746226" lon="12.3708259"><ele>140.0</ele><time>2026-04-25T08:23:15.907Z</time></trkpt><trkpt lat="42.4745379" lon="12.3708072"><ele>140.0</ele><time>2026-04-25T08:23:17.907Z</time></trkpt><trkpt lat="42.4744685" lon="12.3708107"><ele>143.0</ele><time>2026-04-25T08:23:19.907Z</time></trkpt><trkpt lat="42.4744061" lon="12.3708223"><ele>143.0</ele><time>2026-04-25T08:23:21.907Z</time></trkpt><trkpt lat="42.4743288" lon="12.3708384"><ele>143.0</ele><time>2026-04-25T08:23:24.908Z</time></trkpt><trkpt lat="42.4742505" lon="12.3708398"><ele>143.0</ele><time>2026-04-25T08:23:27.908Z</time></trkpt><trkpt lat="42.4741703" lon="12.3708266"><ele>143.0</ele><time>2026-04-25T08:23:31.907Z</time></trkpt></trkseg></trk></gpx>